Hemlock, New York
Current Conditions -  °F | °C
As of 4:54 PM on Monday 20 Oct 2014 (Local Time) from KDSV Reporting Station
Broken Clouds Broken Clouds  
Wind Chill: 55°   Ceiling: 8500
Heat Index: 55°   Visibility: 10mi
Dew Point: 41°   Wind: 6mph
Humidity: 59%   Direction: 130°SE
Pressure: 29.84"   Gusts: NA
Location:  42.79°N, 77.61°W
Report Text: KDSV 202054Z AUTO 13005KT 10SM BKN085 BKN120 13/05 A2984 RMK AO2 SLP117 60000 T01280050 56009
Loading
Personal Weather Stations






























Interactive Weather Map
Tropical Storm Tracking
New forecast layout! Learn more

10-Day Weather Forecast

Advertisements
Track Severe Weather on mobile